createdAt,value
2018-07-13T00:00:03.477Z,15.30
2018-07-13T00:02:32.550Z,15.10
2018-07-13T00:05:01.642Z,14.90
2018-07-13T00:09:59.309Z,14.80
2018-07-13T00:12:28.208Z,14.70
2018-07-13T00:15:08.908Z,14.70
2018-07-13T00:17:37.910Z,14.70
2018-07-13T00:20:07.240Z,14.70
2018-07-13T00:22:36.101Z,14.60
2018-07-13T00:25:05.247Z,14.60
2018-07-13T00:27:34.433Z,14.60
2018-07-13T00:30:03.691Z,14.50
2018-07-13T00:32:32.725Z,14.50
2018-07-13T00:35:02.452Z,14.50
2018-07-13T00:37:31.633Z,14.50
2018-07-13T00:40:01.037Z,14.60
2018-07-13T00:42:30.025Z,14.50
2018-07-13T00:44:59.128Z,14.50
2018-07-13T00:47:29.083Z,14.50
2018-07-13T00:49:58.388Z,14.60
2018-07-13T00:52:27.437Z,14.60
2018-07-13T00:54:56.620Z,14.60
2018-07-13T00:57:25.856Z,14.60
2018-07-13T00:59:54.953Z,14.50
2018-07-13T01:02:24.124Z,14.40
2018-07-13T01:04:53.396Z,14.40
2018-07-13T01:07:23.193Z,14.40
2018-07-13T01:12:22.479Z,14.20
2018-07-13T01:14:51.811Z,14.20
2018-07-13T01:17:24.092Z,14.20
2018-07-13T01:19:53.445Z,14.10
2018-07-13T01:22:22.582Z,14.00
2018-07-13T01:24:51.762Z,14.00
2018-07-13T01:27:20.727Z,14.00
2018-07-13T01:29:49.674Z,14.00
2018-07-13T01:32:18.608Z,14.00
2018-07-13T01:34:47.552Z,14.00
2018-07-13T01:37:16.508Z,14.00
2018-07-13T01:39:45.516Z,13.90
2018-07-13T01:42:14.783Z,13.80
2018-07-13T01:44:44.174Z,13.80
2018-07-13T01:47:13.315Z,13.70
2018-07-13T01:49:42.558Z,13.70
2018-07-13T01:52:11.805Z,13.70
2018-07-13T01:54:41.572Z,13.70
2018-07-13T01:57:10.693Z,13.70
2018-07-13T01:59:39.818Z,13.70
2018-07-13T02:02:10.362Z,13.70
2018-07-13T02:04:40.276Z,13.70
2018-07-13T02:07:10.308Z,13.60
2018-07-13T02:09:39.393Z,13.60
2018-07-13T02:12:09.205Z,13.50
2018-07-13T02:14:38.707Z,13.50
2018-07-13T02:17:09.157Z,13.50
2018-07-13T02:19:38.326Z,13.50
2018-07-13T02:22:07.554Z,13.50
2018-07-13T02:24:38.089Z,13.50
2018-07-13T02:27:08.119Z,13.50
2018-07-13T02:29:37.939Z,13.40
2018-07-13T02:32:07.185Z,13.40
2018-07-13T02:34:36.581Z,13.30
2018-07-13T02:37:05.986Z,13.30
2018-07-13T02:39:35.243Z,13.40
2018-07-13T02:42:04.246Z,13.50
2018-07-13T02:44:33.323Z,13.60
2018-07-13T02:47:02.460Z,13.70
2018-07-13T02:49:31.656Z,13.70
2018-07-13T02:52:00.667Z,13.80
2018-07-13T02:54:29.666Z,13.80
2018-07-13T02:56:58.819Z,13.90
2018-07-13T02:59:28.013Z,14.00
2018-07-13T03:01:57.267Z,14.10
2018-07-13T03:04:26.614Z,14.20
2018-07-13T03:06:55.836Z,14.20
2018-07-13T03:09:25.088Z,14.20
2018-07-13T03:11:54.318Z,14.30
2018-07-13T03:14:24.417Z,14.20
2018-07-13T03:16:53.620Z,14.30
2018-07-13T03:19:22.779Z,14.40
2018-07-13T03:21:52.281Z,14.40
2018-07-13T03:24:21.522Z,14.50
2018-07-13T03:26:51.421Z,14.60
2018-07-13T03:29:20.738Z,14.80
2018-07-13T03:34:18.896Z,14.80
2018-07-13T03:36:48.672Z,14.90
2018-07-13T03:39:17.854Z,14.90
2018-07-13T03:41:47.791Z,14.90
2018-07-13T03:44:17.088Z,14.90
2018-07-13T03:46:47.166Z,14.90
2018-07-13T03:49:16.331Z,14.90
2018-07-13T03:51:45.931Z,14.90
2018-07-13T03:54:15.143Z,14.90
2018-07-13T03:56:44.123Z,14.90
2018-07-13T03:59:13.078Z,14.90
2018-07-13T04:01:42.015Z,14.90
2018-07-13T04:04:10.963Z,14.80
2018-07-13T04:06:39.927Z,14.80
2018-07-13T04:09:10.256Z,14.90
2018-07-13T04:11:39.493Z,15.00
2018-07-13T04:14:08.958Z,15.10
2018-07-13T04:16:38.319Z,15.30
2018-07-13T04:19:07.591Z,15.30
2018-07-13T04:21:36.901Z,15.40
2018-07-13T04:24:06.397Z,15.50
2018-07-13T04:26:35.824Z,15.60
2018-07-13T04:29:05.151Z,15.70
2018-07-13T04:31:34.304Z,15.80
2018-07-13T04:34:03.383Z,15.90
2018-07-13T04:36:32.584Z,15.90
2018-07-13T04:39:01.909Z,16.00
2018-07-13T04:41:31.473Z,16.10
2018-07-13T04:44:01.279Z,16.20
2018-07-13T04:46:30.520Z,16.30
2018-07-13T04:48:59.572Z,16.50
2018-07-13T04:51:28.970Z,16.50
2018-07-13T04:53:58.498Z,16.60
2018-07-13T04:56:27.771Z,16.70
2018-07-13T04:58:57.791Z,16.90
2018-07-13T05:01:26.988Z,17.10
2018-07-13T05:03:56.435Z,17.50
2018-07-13T05:06:25.750Z,17.70
2018-07-13T05:08:55.082Z,17.80
2018-07-13T05:11:24.190Z,18.00
2018-07-13T05:13:53.148Z,18.40
2018-07-13T05:16:22.228Z,19.00
2018-07-13T05:18:51.159Z,19.80
2018-07-13T05:21:20.279Z,20.40
2018-07-13T05:23:49.366Z,21.20
2018-07-13T05:26:18.506Z,21.70
2018-07-13T05:28:47.828Z,22.00
2018-07-13T05:31:17.165Z,22.90
2018-07-13T05:36:14.824Z,24.80
2018-07-13T05:38:44.104Z,24.90
2018-07-13T05:41:13.908Z,24.60
2018-07-13T05:43:43.313Z,25.00
2018-07-13T05:46:12.442Z,24.80
2018-07-13T05:48:41.837Z,24.50
2018-07-13T05:51:11.098Z,25.20
2018-07-13T05:53:40.546Z,26.10
2018-07-13T05:56:09.615Z,27.20
2018-07-13T05:58:38.789Z,28.70
2018-07-13T06:01:08.114Z,29.80
2018-07-13T06:03:37.148Z,30.80
2018-07-13T06:06:06.972Z,31.10
2018-07-13T06:08:36.471Z,31.90
2018-07-13T06:11:05.538Z,32.50
2018-07-13T06:13:34.558Z,33.70
2018-07-13T06:16:03.875Z,34.30
2018-07-13T06:18:32.790Z,33.80
2018-07-13T06:21:03.188Z,33.50
2018-07-13T06:23:33.424Z,32.80
2018-07-13T06:26:02.415Z,33.40
2018-07-13T06:28:31.493Z,34.00
2018-07-13T06:31:00.605Z,34.90
2018-07-13T06:33:29.539Z,33.60
2018-07-13T06:35:58.596Z,34.00
2018-07-13T06:38:27.682Z,34.60
2018-07-13T06:40:56.807Z,33.80
2018-07-13T06:43:26.114Z,32.60
2018-07-13T06:45:55.462Z,31.70
2018-07-13T06:48:25.278Z,31.00
2018-07-13T06:50:54.973Z,32.60
2018-07-13T06:53:24.442Z,34.60
2018-07-13T06:55:53.565Z,36.20
2018-07-13T06:58:33.820Z,35.30
2018-07-13T07:01:05.011Z,34.90
2018-07-13T07:03:36.323Z,35.60
2018-07-13T07:06:12.498Z,35.30
2018-07-13T07:08:44.415Z,35.60
2018-07-13T07:11:14.862Z,34.50
2018-07-13T07:16:14.567Z,35.50
2018-07-13T07:18:43.650Z,36.00
2018-07-13T07:21:12.880Z,36.10
2018-07-13T07:23:42.026Z,35.80
2018-07-13T07:26:11.512Z,35.60
2018-07-13T07:28:40.654Z,34.90
2018-07-13T07:31:09.956Z,35.10
2018-07-13T07:33:39.175Z,34.60
2018-07-13T07:36:08.435Z,34.70
2018-07-13T07:38:38.036Z,34.30
2018-07-13T07:41:07.920Z,34.00
2018-07-13T07:43:36.987Z,34.20
2018-07-13T07:46:05.982Z,35.60
2018-07-13T07:48:35.083Z,36.60
2018-07-13T07:51:04.172Z,37.30
2018-07-13T07:53:33.364Z,38.50
2018-07-13T07:56:04.372Z,38.80
2018-07-13T08:01:05.476Z,37.80
2018-07-13T08:03:34.918Z,39.30
2018-07-13T08:06:04.200Z,40.30
2018-07-13T08:08:33.508Z,40.90
2018-07-13T08:11:02.796Z,41.10
2018-07-13T08:13:31.815Z,38.40
2018-07-13T08:16:00.991Z,35.50
2018-07-13T08:18:30.204Z,32.70
2018-07-13T08:21:00.548Z,30.50
2018-07-13T08:23:29.914Z,29.20
2018-07-13T08:25:59.168Z,28.50
2018-07-13T08:28:28.805Z,28.80
2018-07-13T08:30:59.558Z,29.00
2018-07-13T08:33:28.836Z,28.20
2018-07-13T08:35:58.131Z,27.70
2018-07-13T08:38:27.836Z,27.70
2018-07-13T08:40:57.753Z,27.70
2018-07-13T08:43:27.155Z,27.90
2018-07-13T08:45:56.158Z,28.00
2018-07-13T08:48:25.345Z,27.90
2018-07-13T08:50:54.755Z,28.00
2018-07-13T08:55:53.550Z,27.40
2018-07-13T08:58:22.691Z,27.50
2018-07-13T09:00:51.764Z,27.70
2018-07-13T09:03:20.947Z,28.50
2018-07-13T09:05:49.978Z,29.00
2018-07-13T09:08:18.960Z,31.50
2018-07-13T09:10:48.011Z,33.20
2018-07-13T09:13:17.195Z,32.60
2018-07-13T09:15:46.596Z,31.80
2018-07-13T09:18:15.716Z,31.30
2018-07-13T09:20:44.875Z,30.30
2018-07-13T09:23:14.179Z,31.50
2018-07-13T09:25:43.482Z,34.50
2018-07-13T09:28:12.588Z,36.20
2018-07-13T09:33:10.555Z,37.20
2018-07-13T09:38:09.272Z,35.00
2018-07-13T09:40:39.258Z,35.30
2018-07-13T09:43:08.774Z,34.40
2018-07-13T09:45:37.965Z,33.10
2018-07-13T09:48:07.200Z,30.80
2018-07-13T09:50:36.260Z,29.10
2018-07-13T09:53:05.963Z,28.00
2018-07-13T09:55:34.902Z,27.60
2018-07-13T09:58:03.876Z,27.20
2018-07-13T10:00:38.220Z,27.00
2018-07-13T10:03:07.103Z,26.80
2018-07-13T10:05:36.442Z,26.70
2018-07-13T10:08:05.854Z,27.30
2018-07-13T10:10:35.037Z,27.70
2018-07-13T10:13:03.980Z,27.80
2018-07-13T10:15:32.980Z,28.10
2018-07-13T10:18:01.938Z,28.60
2018-07-13T10:20:31.032Z,28.50
2018-07-13T10:23:00.075Z,28.60
2018-07-13T10:25:30.371Z,29.20
2018-07-13T10:27:59.465Z,29.50
2018-07-13T10:30:28.838Z,28.90
2018-07-13T10:32:58.147Z,28.70
2018-07-13T10:35:27.286Z,28.50
2018-07-13T10:37:56.336Z,28.10
2018-07-13T10:40:25.453Z,28.30
2018-07-13T10:42:54.389Z,28.00
2018-07-13T10:45:23.848Z,27.80
2018-07-13T10:47:52.878Z,27.20
2018-07-13T10:50:21.855Z,26.70
2018-07-13T10:52:50.818Z,26.10
2018-07-13T10:55:19.761Z,25.60
2018-07-13T10:57:49.036Z,25.30
2018-07-13T11:00:18.248Z,25.80
2018-07-13T11:02:47.268Z,26.50
2018-07-13T11:05:16.458Z,27.10
2018-07-13T11:07:45.430Z,27.20
2018-07-13T11:10:14.400Z,27.10
2018-07-13T11:12:43.634Z,27.30
2018-07-13T11:15:12.887Z,27.70
2018-07-13T11:17:42.028Z,28.20
2018-07-13T11:20:11.044Z,28.80
2018-07-13T11:22:39.980Z,29.30
2018-07-13T11:25:08.972Z,29.60
2018-07-13T11:27:37.895Z,29.80
2018-07-13T11:30:06.858Z,29.80
2018-07-13T11:32:35.830Z,29.20
2018-07-13T11:35:04.870Z,28.70
2018-07-13T11:37:34.115Z,28.10
2018-07-13T11:40:03.082Z,27.90
2018-07-13T11:42:32.011Z,27.60
2018-07-13T11:45:00.987Z,27.40
2018-07-13T11:47:30.735Z,27.50
2018-07-13T11:49:59.666Z,27.40
2018-07-13T11:52:28.774Z,27.60
2018-07-13T11:54:57.712Z,27.30
2018-07-13T11:57:26.715Z,27.00
2018-07-13T11:59:55.775Z,26.90
2018-07-13T12:02:25.038Z,26.90
2018-07-13T12:04:54.141Z,26.50
2018-07-13T12:07:23.295Z,26.30
2018-07-13T12:09:52.636Z,26.10
2018-07-13T12:12:21.679Z,26.10
2018-07-13T12:14:50.720Z,25.00
2018-07-13T12:17:19.964Z,23.50
2018-07-13T12:19:49.110Z,22.40
2018-07-13T12:22:18.048Z,21.90
2018-07-13T12:24:47.127Z,21.90
2018-07-13T12:29:45.092Z,22.40
2018-07-13T12:32:14.367Z,22.80
2018-07-13T12:34:43.310Z,23.20
2018-07-13T12:37:12.276Z,23.50
2018-07-13T12:39:43.554Z,23.70
2018-07-13T12:42:12.788Z,23.80
2018-07-13T12:44:41.798Z,23.90
2018-07-13T12:47:10.776Z,23.90
2018-07-13T12:49:39.687Z,23.80
2018-07-13T12:52:08.656Z,23.80
2018-07-13T12:54:37.915Z,23.80
2018-07-13T12:57:07.148Z,23.80
2018-07-13T12:59:36.327Z,24.00
2018-07-13T13:02:05.339Z,24.20
2018-07-13T13:04:34.270Z,24.40
2018-07-13T13:07:03.222Z,24.60
2018-07-13T13:09:32.236Z,24.60
2018-07-13T13:12:01.199Z,24.90
2018-07-13T13:14:30.153Z,25.20
2018-07-13T13:16:59.270Z,25.40
2018-07-13T13:19:28.225Z,25.50
2018-07-13T13:21:57.481Z,25.60
2018-07-13T13:24:26.555Z,25.90
2018-07-13T13:26:55.643Z,26.10
2018-07-13T13:29:24.735Z,26.30
2018-07-13T13:34:22.306Z,26.90
2018-07-13T13:36:51.289Z,27.30
2018-07-13T13:39:20.426Z,27.70
2018-07-13T13:41:49.444Z,27.80
2018-07-13T13:44:18.476Z,27.90
2018-07-13T13:46:47.563Z,28.00
2018-07-13T13:49:16.600Z,27.80
2018-07-13T13:51:45.555Z,27.80
2018-07-13T13:54:15.423Z,27.70
2018-07-13T13:56:44.395Z,27.70
2018-07-13T13:59:13.323Z,27.40
2018-07-13T14:01:42.315Z,27.00
2018-07-13T14:04:11.930Z,26.50
2018-07-13T14:06:40.890Z,26.30
2018-07-13T14:09:10.555Z,26.30
2018-07-13T14:11:40.280Z,26.50
2018-07-13T14:14:09.211Z,26.40
2018-07-13T14:16:38.319Z,26.30
2018-07-13T14:19:07.321Z,26.10
2018-07-13T14:21:36.296Z,26.10
2018-07-13T14:24:05.322Z,26.30
2018-07-13T14:26:34.300Z,26.60
2018-07-13T14:29:03.266Z,26.90
2018-07-13T14:31:32.247Z,27.10
2018-07-13T14:34:01.267Z,27.30
2018-07-13T14:36:30.244Z,27.30
2018-07-13T14:38:59.202Z,26.90
2018-07-13T14:41:28.501Z,26.20
2018-07-13T14:43:57.503Z,24.50
2018-07-13T14:46:26.628Z,23.10
2018-07-13T14:48:55.734Z,22.50
2018-07-13T14:51:24.906Z,22.30
2018-07-13T14:53:53.999Z,22.50
2018-07-13T14:56:23.298Z,22.70
2018-07-13T14:58:52.497Z,22.70
2018-07-13T15:01:21.705Z,22.20
2018-07-13T15:03:50.729Z,21.90
2018-07-13T15:06:20.274Z,21.60
2018-07-13T15:08:49.120Z,21.00
2018-07-13T15:11:18.068Z,20.70
2018-07-13T15:13:47.019Z,20.20
2018-07-13T15:16:15.975Z,19.70
2018-07-13T15:18:44.904Z,19.50
2018-07-13T15:21:13.957Z,19.40
2018-07-13T15:23:42.901Z,19.50
2018-07-13T15:26:11.854Z,19.80
2018-07-13T15:28:40.873Z,20.20
2018-07-13T15:31:09.830Z,20.60
2018-07-13T15:33:38.899Z,20.80
2018-07-13T15:36:07.878Z,21.10
2018-07-13T15:38:36.967Z,21.30
2018-07-13T15:41:05.966Z,21.30
2018-07-13T15:43:34.959Z,21.40
2018-07-13T15:46:03.951Z,21.40
2018-07-13T15:48:33.224Z,21.40
2018-07-13T15:51:02.523Z,21.50
2018-07-13T15:53:32.417Z,21.40
2018-07-13T15:56:01.428Z,21.30
2018-07-13T15:58:30.617Z,21.10
2018-07-13T16:00:59.818Z,21.00
2018-07-13T16:03:28.835Z,20.90
2018-07-13T16:08:26.746Z,20.80
2018-07-13T16:10:55.920Z,20.90
2018-07-13T16:13:24.983Z,21.00
2018-07-13T16:15:53.923Z,21.10
2018-07-13T16:18:23.009Z,21.10
2018-07-13T16:20:52.182Z,21.10
2018-07-13T16:23:21.116Z,21.00
2018-07-13T16:25:50.134Z,21.10
2018-07-13T16:28:19.117Z,21.10
2018-07-13T16:30:48.921Z,21.10
2018-07-13T16:33:17.967Z,21.20
2018-07-13T16:35:46.892Z,21.30
2018-07-13T16:38:16.032Z,21.30
2018-07-13T16:40:45.224Z,21.30
2018-07-13T16:43:14.192Z,21.30
2018-07-13T16:45:43.159Z,21.30
2018-07-13T16:48:12.483Z,21.30
2018-07-13T16:50:41.873Z,21.40
2018-07-13T16:53:10.883Z,21.40
2018-07-13T16:55:40.075Z,21.20
2018-07-13T16:58:10.187Z,21.30
2018-07-13T17:00:39.457Z,21.30
2018-07-13T17:03:08.584Z,21.30
2018-07-13T17:08:06.748Z,21.80
2018-07-13T17:10:35.714Z,21.90
2018-07-13T17:13:04.950Z,22.00
2018-07-13T17:15:34.127Z,22.00
2018-07-13T17:18:03.462Z,22.10
2018-07-13T17:20:32.601Z,22.00
2018-07-13T17:23:01.945Z,21.90
2018-07-13T17:25:31.258Z,21.90
2018-07-13T17:30:30.200Z,22.10
2018-07-13T17:32:59.460Z,21.90
2018-07-13T17:35:28.633Z,21.60
2018-07-13T17:37:58.219Z,21.50
2018-07-13T17:40:27.159Z,21.30
2018-07-13T17:42:56.120Z,21.20
2018-07-13T17:45:25.088Z,21.00
2018-07-13T17:47:54.074Z,20.90
2018-07-13T17:50:22.985Z,20.70
2018-07-13T17:52:52.489Z,20.60
2018-07-13T17:55:22.549Z,20.60
2018-07-13T17:57:51.726Z,20.50
2018-07-13T18:00:20.670Z,20.50
2018-07-13T18:02:49.883Z,20.40
2018-07-13T18:05:19.519Z,20.40
2018-07-13T18:10:17.982Z,20.40
2018-07-13T18:12:47.257Z,20.30
2018-07-13T18:15:16.509Z,20.30
2018-07-13T18:17:46.015Z,20.40
2018-07-13T18:20:15.168Z,20.40
2018-07-13T18:22:44.468Z,20.40
2018-07-13T18:25:13.487Z,20.40
2018-07-13T18:27:42.424Z,20.20
2018-07-13T18:30:11.447Z,20.00
2018-07-13T18:32:40.738Z,19.90
2018-07-13T18:35:09.856Z,19.80
2018-07-13T18:37:39.224Z,19.70
2018-07-13T18:40:08.572Z,19.60
2018-07-13T18:42:38.268Z,19.50
2018-07-13T18:45:08.032Z,19.40
2018-07-13T18:47:37.617Z,19.30
2018-07-13T18:50:06.952Z,19.30
2018-07-13T18:52:35.913Z,19.20
2018-07-13T18:55:04.998Z,19.10
2018-07-13T18:57:33.955Z,19.00
2018-07-13T19:00:02.885Z,18.90
2018-07-13T19:02:31.855Z,18.90
2018-07-13T19:05:00.789Z,18.80
2018-07-13T19:07:29.930Z,18.80
2018-07-13T19:09:58.851Z,18.70
2018-07-13T19:12:27.934Z,18.60
2018-07-13T19:14:57.162Z,18.60
2018-07-13T19:17:26.158Z,18.40
2018-07-13T19:19:55.245Z,18.40
2018-07-13T19:22:24.512Z,18.30
2018-07-13T19:24:54.657Z,18.30
2018-07-13T19:27:23.717Z,18.30
2018-07-13T19:29:52.953Z,18.30
2018-07-13T19:32:22.250Z,18.30
2018-07-13T19:34:51.551Z,18.30
2018-07-13T19:37:20.777Z,18.20
2018-07-13T19:39:50.119Z,18.20
2018-07-13T19:42:20.057Z,18.10
2018-07-13T19:44:49.242Z,18.10
2018-07-13T19:47:18.474Z,18.10
2018-07-13T19:49:47.745Z,18.00
2018-07-13T19:52:17.999Z,18.10
2018-07-13T19:54:47.259Z,18.10
2018-07-13T19:57:16.356Z,18.10
2018-07-13T19:59:45.761Z,18.10
2018-07-13T20:02:15.441Z,18.20
2018-07-13T20:04:44.651Z,18.20
2018-07-13T20:07:13.632Z,18.10
2018-07-13T20:09:42.586Z,18.10
2018-07-13T20:12:11.640Z,18.10
2018-07-13T20:14:40.593Z,18.00
2018-07-13T20:17:09.605Z,18.10
2018-07-13T20:19:38.587Z,18.00
2018-07-13T20:22:07.696Z,18.00
2018-07-13T20:24:36.887Z,18.10
2018-07-13T20:27:06.088Z,18.20
2018-07-13T20:29:35.663Z,18.20
2018-07-13T20:32:05.499Z,18.20
2018-07-13T20:34:34.956Z,18.30
2018-07-13T20:37:04.813Z,18.30
2018-07-13T20:39:34.036Z,18.20
2018-07-13T20:42:03.101Z,18.10
2018-07-13T20:44:32.293Z,18.10
2018-07-13T20:47:01.590Z,18.00
2018-07-13T20:49:31.098Z,18.00
2018-07-13T20:52:00.615Z,17.90
2018-07-13T20:56:58.643Z,17.70
2018-07-13T20:59:27.995Z,17.70
2018-07-13T21:01:57.211Z,17.70
2018-07-13T21:04:26.469Z,17.70
2018-07-13T21:06:55.471Z,17.60
2018-07-13T21:09:24.586Z,17.60
2018-07-13T21:11:53.853Z,17.70
2018-07-13T21:14:23.412Z,17.60
2018-07-13T21:16:52.660Z,17.50
2018-07-13T21:19:21.875Z,17.60
2018-07-13T21:21:51.593Z,17.60
2018-07-13T21:24:20.541Z,17.60
2018-07-13T21:26:49.533Z,17.60
2018-07-13T21:29:23.856Z,17.60
2018-07-13T21:31:52.746Z,17.60
2018-07-13T21:34:21.720Z,17.50
2018-07-13T21:36:50.707Z,17.50
2018-07-13T21:39:20.004Z,17.50
2018-07-13T21:41:49.523Z,17.50
2018-07-13T21:44:19.555Z,17.50
2018-07-13T21:46:48.801Z,17.50
2018-07-13T21:49:18.134Z,17.40
2018-07-13T21:51:47.332Z,17.40
2018-07-13T21:54:16.856Z,17.40
2018-07-13T21:56:46.823Z,17.40
2018-07-13T21:59:16.881Z,17.50
2018-07-13T22:01:46.623Z,17.60
2018-07-13T22:04:16.688Z,17.70
2018-07-13T22:06:45.908Z,17.70
2018-07-13T22:09:15.709Z,17.80
2018-07-13T22:11:46.224Z,17.80
2018-07-13T22:14:15.989Z,17.90
2018-07-13T22:16:46.043Z,17.90
2018-07-13T22:19:15.181Z,17.90
2018-07-13T22:21:44.164Z,17.90
2018-07-13T22:24:13.380Z,18.00
2018-07-13T22:26:43.032Z,17.90
2018-07-13T22:29:12.320Z,17.90
2018-07-13T22:31:41.472Z,17.80
2018-07-13T22:34:10.681Z,17.80
2018-07-13T22:36:39.913Z,17.70
2018-07-13T22:39:08.851Z,17.60
2018-07-13T22:41:37.823Z,17.60
2018-07-13T22:44:06.786Z,17.50
2018-07-13T22:46:35.732Z,17.30
2018-07-13T22:49:04.773Z,17.30
2018-07-13T22:51:33.707Z,17.30
2018-07-13T22:54:04.998Z,17.30
2018-07-13T22:56:34.591Z,17.30
2018-07-13T22:59:06.460Z,17.20
2018-07-13T23:01:36.248Z,17.20
2018-07-13T23:04:08.272Z,17.20
2018-07-13T23:06:38.833Z,17.20
2018-07-13T23:09:08.243Z,17.10
2018-07-13T23:11:37.454Z,17.10
2018-07-13T23:14:06.747Z,17.10
2018-07-13T23:16:36.049Z,17.10
2018-07-13T23:19:05.352Z,17.00
2018-07-13T23:21:35.363Z,17.00
2018-07-13T23:24:04.660Z,16.90
2018-07-13T23:26:34.321Z,16.90
2018-07-13T23:29:03.603Z,16.90
2018-07-13T23:31:32.872Z,16.80
2018-07-13T23:34:02.108Z,16.70
2018-07-13T23:36:31.983Z,16.70
2018-07-13T23:39:01.275Z,16.70
2018-07-13T23:41:30.460Z,16.70
2018-07-13T23:43:59.646Z,16.60
2018-07-13T23:46:28.848Z,16.60
2018-07-13T23:48:58.094Z,16.60
2018-07-13T23:51:27.341Z,16.50
2018-07-13T23:53:56.313Z,16.40
2018-07-13T23:56:25.322Z,16.40
2018-07-13T23:58:54.245Z,16.40
